Mendham, NJ (07945)

10:39 PM EST on February 09, 2016 (GMT -0500)
Mendham Fire Department | | Change Station
CLOSE
Current Station
Personal Weather Station
Location: Mendham, NJ
Elevation: 610 ft
Nearby Weather Stations

Elev 610 ft 40.78 °N, 74.60 °W | Updated 46 seconds ago

Overcast
Overcast
29.3 °F
Feels Like 29 °F
N
0.0
Wind Variable Wind from North
Gusts 0.0 mph

Today
High -- | Low -- °F
--% Chance of Precip.
Yesterday
High -- | Low -- °F
Precip. -- in
Pressure 29.61 in
Visibility 3.0 miles
Clouds Overcast 1900 ft
Windchill 29 °F
Dew Point 27 °F
Humidity 92%
Rainfall 0.00 in
Snow Depth Not available.
7:00 AM 5:25 PM
Waxing Crescent, 3% visible
METAR KMMU 100315Z AUTO 00000KT 3SM -SN OVC019 M01/M03 A2961 RMK AO2
Pressure 29.61 in
Visibility 3.0 miles
Clouds Overcast 1900 ft
Windchill 29 °F
Dew Point 27 °F
Humidity 92%
Rainfall 0.00 in
Snow Depth Not available.
7:00 AM 5:25 PM
Waxing Crescent, 3% visible
METAR KMMU 100315Z AUTO 00000KT 3SM -SN OVC019 M01/M03 A2961 RMK AO2
Winter Storm Nacio, the third winter storm in five days to affect the Northeast, is bringing pockets of locally heavy snow to parts of the Ohio Valley, Appalachians and mid-Atlantic states Tuesday. Winter storm warnings are posted for parts of southern Pennsylvania, southern Ohio and the higher peaks of the Appalachians. Winter weather advisories, generally for lighter snow accumulations, stretch from northeast Alabama and far north Georgia to southern Connecticut and Long Island.

10-Day Weather Forecast

Almanac

Astronomy

Feb. 09, 2016 Rise Set
Actual Time
Civil Twilight
Nautical Twilight
Astronomical Twilight
Moon
Length of Visible Light
Length of Day
Tomorrow will be .
, % of the Moon is Illuminated

Today's Extremes

State Highs State Lows

Community

WunderPhotos

Upload Photos

1,891,792 photos uploaded!

WunderBlog® & News

Nearby

Air Quality

  Air Quality AQ Index Pollutant
Not available.

Snow Depth

Station Depth Elevation

Earthquake Activity

City Distance Mag. Time & Date
Minimum magnitude displayed is 2.5.

Coastal Water Temperatures

Place Temperature

Stations

Nearby Weather Stations

Station Location Temp. Windchill Dew Point Humidity Wind Precip. Elev Updated Type
                   

Watches & Warnings

There are currently no watches in effect.